Terminal Aerodrome Forecast
Issued by NWS

Home | Current Version | Previous Version | Text Only | Print | Product List | Glossary On
Versions: 1 2 3 4 5 6 7 8 9 10 11 12 13 14 15 16 17
000
FTUS42 TJSJ 161700 RRA
TAFNCM
TAF
TNCM 161739Z 1618/1718 12010KT P6SM VCSH SCT018 SCT040
      TEMPO 1618/1622 VRB12KT -SHRA BKN018 BKN040
     FM162230 09008KT P6SM FEW018 SCT060 PROB30 1704/1708 5SM -SHRA
      BKN018
     FM171400 12012KT P6SM FEW020 SCT050=

USA.gov is the U.S. government's official web portal to all federal, state and local government web resources and services.